createdAt,value
2022-12-16T00:00:50.079Z,69.55
2022-12-16T00:03:19.129Z,71.25
2022-12-16T00:05:49.590Z,72.93
2022-12-16T00:08:21.613Z,71.23
2022-12-16T00:10:55.097Z,70.82
2022-12-16T00:13:26.143Z,69.95
2022-12-16T00:15:59.397Z,75.05
2022-12-16T00:18:37.314Z,71.07
2022-12-16T00:21:10.172Z,75.60
2022-12-16T00:23:45.196Z,74.38
2022-12-16T00:26:15.810Z,68.13
2022-12-16T00:28:47.248Z,68.68
2022-12-16T00:33:56.228Z,69.88
2022-12-16T00:36:26.722Z,71.80
2022-12-16T00:38:57.306Z,71.70
2022-12-16T00:41:29.848Z,72.60
2022-12-16T00:44:05.257Z,72.57
2022-12-16T00:46:38.191Z,75.45
2022-12-16T00:49:11.102Z,77.55
2022-12-16T00:51:44.038Z,74.88
2022-12-16T00:54:16.361Z,77.75
2022-12-16T00:56:49.300Z,77.90
2022-12-16T00:59:21.482Z,75.13
2022-12-16T01:01:52.882Z,77.80
2022-12-16T01:04:27.973Z,83.22
2022-12-16T01:07:02.119Z,76.75
2022-12-16T01:09:32.749Z,78.28
2022-12-16T01:12:08.320Z,72.97
2022-12-16T01:14:36.022Z,73.32
2022-12-16T01:17:03.839Z,83.80
2022-12-16T01:19:36.374Z,76.85
2022-12-16T01:22:04.655Z,82.93
2022-12-16T01:24:34.047Z,79.85
2022-12-16T01:27:03.967Z,81.32
2022-12-16T01:29:31.529Z,79.88
2022-12-16T01:32:09.562Z,77.77
2022-12-16T01:34:42.922Z,79.68
2022-12-16T01:37:16.537Z,77.57
2022-12-16T01:39:44.311Z,72.78
2022-12-16T01:42:16.775Z,72.75
2022-12-16T01:44:49.783Z,75.18
2022-12-16T01:47:38.234Z,77.30
2022-12-16T01:50:18.564Z,74.18
2022-12-16T01:52:57.194Z,76.25
2022-12-16T01:55:31.618Z,78.22
2022-12-16T01:58:26.621Z,78.80
2022-12-16T02:01:01.181Z,92.93
2022-12-16T02:03:34.182Z,86.38
2022-12-16T02:06:15.384Z,83.90
2022-12-16T02:08:54.215Z,79.35
2022-12-16T02:11:49.107Z,85.57
2022-12-16T02:14:46.070Z,81.43
2022-12-16T02:17:50.714Z,91.47
2022-12-16T02:20:57.995Z,79.15
2022-12-16T02:24:09.905Z,81.43
2022-12-16T02:27:21.653Z,75.82
2022-12-16T02:30:08.102Z,80.68
2022-12-16T02:32:57.563Z,74.07
2022-12-16T02:35:39.668Z,85.10
2022-12-16T02:38:27.683Z,80.80
2022-12-16T02:41:10.790Z,99.93
2022-12-16T02:44:11.457Z,81.32
2022-12-16T02:46:44.774Z,87.68
2022-12-16T02:49:18.339Z,78.55
2022-12-16T02:51:51.317Z,90.25
2022-12-16T02:54:33.526Z,87.05
2022-12-16T02:57:19.915Z,82.22
2022-12-16T03:00:10.523Z,84.72
2022-12-16T03:03:08.100Z,97.53
2022-12-16T03:05:49.031Z,78.28
2022-12-16T03:08:34.433Z,74.35
2022-12-16T03:11:11.303Z,96.15
2022-12-16T03:14:07.141Z,77.18
2022-12-16T03:19:26.836Z,78.78
2022-12-16T03:22:16.328Z,91.43
2022-12-16T03:24:44.009Z,79.88
2022-12-16T03:27:22.189Z,78.53
2022-12-16T03:30:48.203Z,81.25
2022-12-16T03:33:27.025Z,78.75
2022-12-16T03:36:09.903Z,77.75
2022-12-16T03:38:46.879Z,74.05
2022-12-16T03:41:22.528Z,72.75
2022-12-16T03:44:06.721Z,69.28
2022-12-16T03:46:36.941Z,65.68
2022-12-16T03:49:12.297Z,70.43
2022-12-16T03:51:50.999Z,69.60
2022-12-16T03:54:20.814Z,69.38
2022-12-16T03:56:53.472Z,66.28
2022-12-16T03:59:26.242Z,71.55
2022-12-16T04:02:02.832Z,64.20
2022-12-16T04:04:34.395Z,67.93
2022-12-16T04:07:21.816Z,65.30
2022-12-16T04:09:53.250Z,71.57
2022-12-16T04:15:26.183Z,72.32
2022-12-16T04:18:11.928Z,68.05
2022-12-16T04:21:01.865Z,67.03
2022-12-16T04:23:49.409Z,69.38
2022-12-16T04:26:16.771Z,63.17
2022-12-16T04:28:43.760Z,62.63
2022-12-16T04:31:11.156Z,65.75
2022-12-16T04:33:57.224Z,64.35
2022-12-16T04:36:42.752Z,70.03
2022-12-16T04:39:28.562Z,63.45
2022-12-16T04:42:14.273Z,67.93
2022-12-16T04:44:59.674Z,76.90
2022-12-16T04:47:45.325Z,68.90
2022-12-16T04:50:31.063Z,72.82
2022-12-16T04:53:16.457Z,78.38
2022-12-16T04:56:04.365Z,72.55
2022-12-16T04:58:50.517Z,74.03
2022-12-16T05:01:36.017Z,77.55
2022-12-16T05:04:22.077Z,74.90
2022-12-16T05:07:07.500Z,77.50
2022-12-16T05:09:53.039Z,74.18
2022-12-16T05:12:38.981Z,70.20
2022-12-16T05:15:25.028Z,67.85
2022-12-16T05:18:10.793Z,61.78
2022-12-16T05:20:56.530Z,69.95
2022-12-16T05:23:42.210Z,72.28
2022-12-16T05:26:44.465Z,73.20
2022-12-16T05:29:29.920Z,74.18
2022-12-16T05:32:15.401Z,78.07
2022-12-16T05:35:01.171Z,71.97
2022-12-16T05:37:46.965Z,78.72
2022-12-16T05:40:32.683Z,73.20
2022-12-16T05:43:18.151Z,79.38
2022-12-16T05:46:03.769Z,75.68
2022-12-16T05:48:49.269Z,70.22
2022-12-16T05:51:34.962Z,79.32
2022-12-16T05:54:20.576Z,72.55
2022-12-16T05:57:06.272Z,74.55
2022-12-16T05:59:52.075Z,76.70
2022-12-16T06:02:38.343Z,76.68
2022-12-16T06:05:24.273Z,70.50
2022-12-16T06:08:13.251Z,69.82
2022-12-16T06:10:59.265Z,68.57
2022-12-16T06:13:44.930Z,78.60
2022-12-16T06:16:30.639Z,69.93
2022-12-16T06:19:16.197Z,68.88
2022-12-16T06:22:01.794Z,70.20
2022-12-16T06:24:47.305Z,65.32
2022-12-16T06:27:32.698Z,61.03
2022-12-16T06:30:18.326Z,64.57
2022-12-16T06:33:04.031Z,66.28
2022-12-16T06:35:49.700Z,69.80
2022-12-16T06:38:35.420Z,68.40
2022-12-16T06:41:21.180Z,65.07
2022-12-16T06:44:06.871Z,68.30
2022-12-16T06:46:52.695Z,61.65
2022-12-16T06:49:38.136Z,60.88
2022-12-16T06:52:23.703Z,73.38
2022-12-16T06:55:09.150Z,69.63
2022-12-16T06:57:54.829Z,82.60
2022-12-16T07:00:40.394Z,71.45
2022-12-16T07:03:25.974Z,71.68
2022-12-16T07:06:12.626Z,72.00
2022-12-16T07:08:58.000Z,82.22
2022-12-16T07:11:43.813Z,78.45
2022-12-16T07:14:46.413Z,76.07
2022-12-16T07:17:32.142Z,80.13
2022-12-16T07:20:18.074Z,81.82
2022-12-16T07:23:10.946Z,77.25
2022-12-16T07:26:01.610Z,80.13
2022-12-16T07:28:47.076Z,95.80
2022-12-16T07:31:32.869Z,81.63
2022-12-16T07:34:18.486Z,73.47
2022-12-16T07:37:04.124Z,90.38
2022-12-16T07:39:54.514Z,88.95
2022-12-16T07:42:41.604Z,97.10
2022-12-16T07:45:29.050Z,86.57
2022-12-16T07:48:14.831Z,89.60
2022-12-16T07:51:00.666Z,84.95
2022-12-16T07:53:46.189Z,88.60
2022-12-16T07:56:32.038Z,98.43
2022-12-16T07:59:17.585Z,103.38
2022-12-16T08:02:03.449Z,88.88
2022-12-16T08:04:49.079Z,100.43
2022-12-16T08:07:34.714Z,90.03
2022-12-16T08:10:20.640Z,89.05
2022-12-16T08:13:06.464Z,93.55
2022-12-16T08:15:52.173Z,91.65
2022-12-16T08:18:38.541Z,86.90
2022-12-16T08:21:24.367Z,83.75
2022-12-16T08:24:10.282Z,85.00
2022-12-16T08:26:55.719Z,87.53
2022-12-16T08:29:45.368Z,95.45
2022-12-16T08:32:32.835Z,92.55
2022-12-16T08:35:18.567Z,90.65
2022-12-16T08:38:09.038Z,91.03
2022-12-16T08:41:03.778Z,84.43
2022-12-16T08:43:51.082Z,86.95
2022-12-16T08:46:37.346Z,87.70
2022-12-16T08:49:23.691Z,84.80
2022-12-16T08:52:09.834Z,94.60
2022-12-16T08:54:55.468Z,84.63
2022-12-16T08:57:42.456Z,88.93
2022-12-16T09:00:28.910Z,79.18
2022-12-16T09:03:15.481Z,75.60
2022-12-16T09:06:01.745Z,84.65
2022-12-16T09:08:48.040Z,81.68
2022-12-16T09:11:33.886Z,88.50
2022-12-16T09:14:19.571Z,79.90
2022-12-16T09:17:04.944Z,78.65
2022-12-16T09:19:50.668Z,80.05
2022-12-16T09:22:53.170Z,84.80
2022-12-16T09:25:40.755Z,82.82
2022-12-16T09:28:26.325Z,86.43
2022-12-16T09:31:11.898Z,79.93
2022-12-16T09:33:57.282Z,89.28
2022-12-16T09:36:42.759Z,88.38
2022-12-16T09:39:28.103Z,82.78
2022-12-16T09:42:32.343Z,83.20
2022-12-16T09:45:58.019Z,83.50
2022-12-16T09:49:12.747Z,83.85
2022-12-16T09:51:59.635Z,89.03
2022-12-16T09:54:48.499Z,86.35
2022-12-16T09:57:34.900Z,86.25
2022-12-16T10:00:35.505Z,88.97
2022-12-16T10:03:31.648Z,85.18
2022-12-16T10:06:50.990Z,87.88
2022-12-16T10:09:39.537Z,87.35
2022-12-16T10:12:44.528Z,90.70
2022-12-16T10:15:58.122Z,102.30
2022-12-16T10:19:06.294Z,98.88
2022-12-16T10:22:00.956Z,83.40
2022-12-16T10:25:05.234Z,97.30
2022-12-16T10:27:58.100Z,84.35
2022-12-16T10:30:43.846Z,98.97
2022-12-16T10:33:33.847Z,87.85
2022-12-16T10:36:19.727Z,88.70
2022-12-16T10:39:19.932Z,84.72
2022-12-16T10:42:10.172Z,94.88
2022-12-16T10:45:01.885Z,88.90
2022-12-16T10:50:34.258Z,102.38
2022-12-16T10:53:23.188Z,100.50
2022-12-16T10:56:27.371Z,86.85
2022-12-16T10:59:16.224Z,97.00
2022-12-16T11:02:19.099Z,94.70
2022-12-16T11:05:05.924Z,102.28
2022-12-16T11:07:57.458Z,88.15
2022-12-16T11:10:44.115Z,89.25
2022-12-16T11:13:44.845Z,96.03
2022-12-16T11:16:44.245Z,97.18
2022-12-16T11:19:49.891Z,94.80
2022-12-16T11:22:40.705Z,95.40
2022-12-16T11:25:35.663Z,94.80
2022-12-16T11:28:39.085Z,87.85
2022-12-16T11:31:30.791Z,97.30
2022-12-16T11:37:04.124Z,93.93
2022-12-16T11:39:51.069Z,91.93
2022-12-16T11:42:44.028Z,87.07
2022-12-16T11:45:40.481Z,93.25
2022-12-16T11:49:01.163Z,96.05
2022-12-16T11:51:50.395Z,89.75
2022-12-16T11:54:48.511Z,96.45
2022-12-16T11:58:02.671Z,88.05
2022-12-16T12:00:48.898Z,96.40
2022-12-16T12:03:41.808Z,91.28
2022-12-16T12:06:31.522Z,89.53
2022-12-16T12:09:19.939Z,95.53
2022-12-16T12:12:14.979Z,104.97
2022-12-16T12:15:20.394Z,87.47
2022-12-16T12:18:25.745Z,95.28
2022-12-16T12:21:26.380Z,106.93
2022-12-16T12:24:15.260Z,103.68
2022-12-16T12:27:09.788Z,94.18
2022-12-16T12:30:16.660Z,94.57
2022-12-16T12:33:40.210Z,72.28
2022-12-16T12:36:44.353Z,61.55
2022-12-16T12:40:05.869Z,65.45
2022-12-16T12:42:57.525Z,73.80
2022-12-16T12:49:12.321Z,64.25
2022-12-16T12:52:09.906Z,60.72
2022-12-16T12:55:00.939Z,66.65
2022-12-16T12:57:48.420Z,63.25
2022-12-16T13:00:36.883Z,63.38
2022-12-16T13:03:38.113Z,65.47
2022-12-16T13:09:11.335Z,58.60
2022-12-16T13:12:17.111Z,61.20
2022-12-16T13:15:08.333Z,60.58
2022-12-16T13:18:16.280Z,60.15
2022-12-16T13:21:01.892Z,55.47
2022-12-16T13:23:47.423Z,53.45
2022-12-16T13:26:38.254Z,60.33
2022-12-16T13:29:43.266Z,56.80
2022-12-16T13:32:28.924Z,60.65
2022-12-16T13:35:37.833Z,60.00
2022-12-16T13:38:38.653Z,52.42
2022-12-16T13:41:45.741Z,52.30
2022-12-16T13:44:52.057Z,54.13
2022-12-16T13:48:12.770Z,48.30
2022-12-16T13:51:07.801Z,53.50
2022-12-16T13:53:57.804Z,52.58
2022-12-16T13:56:58.036Z,53.50
2022-12-16T13:59:48.452Z,55.60
2022-12-16T14:02:57.448Z,47.90
2022-12-16T14:05:55.982Z,52.67
2022-12-16T14:08:43.152Z,58.28
2022-12-16T14:12:04.153Z,53.17
2022-12-16T14:14:55.278Z,54.28
2022-12-16T14:17:52.591Z,68.82
2022-12-16T14:21:05.818Z,54.80
2022-12-16T14:24:01.700Z,53.45
2022-12-16T14:26:47.621Z,50.42
2022-12-16T14:29:51.630Z,58.47
2022-12-16T14:32:48.236Z,44.90
2022-12-16T14:36:07.084Z,58.03
2022-12-16T14:38:55.684Z,63.75
2022-12-16T14:41:44.093Z,52.78
2022-12-16T14:44:39.225Z,62.38
2022-12-16T14:47:25.053Z,56.65
2022-12-16T14:50:12.428Z,57.60
2022-12-16T14:52:58.610Z,54.30
2022-12-16T14:55:53.972Z,50.25
2022-12-16T14:58:41.990Z,54.40
2022-12-16T15:01:35.937Z,56.08
2022-12-16T15:04:25.280Z,57.05
2022-12-16T15:07:12.974Z,55.97
2022-12-16T15:10:17.780Z,49.90
2022-12-16T15:13:06.769Z,50.47
2022-12-16T15:16:01.615Z,49.22
2022-12-16T15:18:52.019Z,72.40
2022-12-16T15:21:37.570Z,108.80
2022-12-16T15:24:38.186Z,113.97
2022-12-16T15:27:45.853Z,113.15
2022-12-16T15:30:50.384Z,263.08
2022-12-16T15:33:38.507Z,108.72
2022-12-16T15:36:25.286Z,62.88
2022-12-16T15:39:10.785Z,59.70
2022-12-16T15:41:56.815Z,121.57
2022-12-16T15:44:46.021Z,210.63
2022-12-16T15:47:55.731Z,316.52
2022-12-16T15:50:47.047Z,116.40
2022-12-16T15:53:45.808Z,185.57
2022-12-16T15:56:52.004Z,263.95
2022-12-16T15:59:45.172Z,253.07
2022-12-16T16:02:38.459Z,227.85
2022-12-16T16:05:38.234Z,149.82
2022-12-16T16:08:24.083Z,110.93
2022-12-16T16:11:10.137Z,116.50
2022-12-16T16:14:05.964Z,62.15
2022-12-16T16:17:00.640Z,68.03
2022-12-16T16:19:50.971Z,61.58
2022-12-16T16:22:39.362Z,55.10
2022-12-16T16:25:33.283Z,60.13
2022-12-16T16:28:33.181Z,62.38
2022-12-16T16:31:19.691Z,53.90
2022-12-16T16:34:11.108Z,58.75
2022-12-16T16:37:04.208Z,53.22
2022-12-16T16:40:01.678Z,58.20
2022-12-16T16:49:03.174Z,53.42
2022-12-16T16:52:11.307Z,48.83
2022-12-16T16:55:04.971Z,53.15
2022-12-16T16:57:57.492Z,47.05
2022-12-16T17:00:58.637Z,45.78
2022-12-16T17:03:59.645Z,51.53
2022-12-16T17:06:54.328Z,49.13
2022-12-16T17:09:52.984Z,55.35
2022-12-16T17:12:46.337Z,53.78
2022-12-16T17:16:08.302Z,70.18
2022-12-16T17:22:19.596Z,70.88
2022-12-16T17:25:07.904Z,69.95
2022-12-16T17:28:12.852Z,77.63
2022-12-16T17:31:22.685Z,68.75
2022-12-16T17:34:10.844Z,90.05
2022-12-16T17:37:03.032Z,74.05
2022-12-16T17:39:54.633Z,64.70
2022-12-16T17:42:46.487Z,63.25
2022-12-16T17:45:37.730Z,64.45
2022-12-16T17:48:43.944Z,60.25
2022-12-16T17:51:47.115Z,60.90
2022-12-16T17:54:44.982Z,62.03
2022-12-16T17:57:31.518Z,60.28
2022-12-16T18:00:20.222Z,56.88
2022-12-16T18:03:07.638Z,59.95
2022-12-16T18:06:03.180Z,69.00
2022-12-16T18:08:59.256Z,66.18
2022-12-16T18:11:57.994Z,61.97
2022-12-16T18:14:47.061Z,60.70
2022-12-16T18:17:36.125Z,67.43
2022-12-16T18:20:25.210Z,56.95
2022-12-16T18:23:21.313Z,58.70
2022-12-16T18:26:24.608Z,62.85
2022-12-16T18:29:23.405Z,52.97
2022-12-16T18:32:21.030Z,60.05
2022-12-16T18:35:20.169Z,58.17
2022-12-16T18:38:16.934Z,54.92
2022-12-16T18:41:09.051Z,60.75
2022-12-16T18:44:00.776Z,56.72
2022-12-16T18:46:56.588Z,54.05
2022-12-16T18:49:52.806Z,57.28
2022-12-16T18:52:52.711Z,53.97
2022-12-16T18:55:45.431Z,59.45
2022-12-16T19:01:44.294Z,57.92
2022-12-16T19:04:47.880Z,56.95
2022-12-16T19:07:40.298Z,52.08
2022-12-16T19:10:52.327Z,51.60
2022-12-16T19:13:40.375Z,55.17
2022-12-16T19:16:38.526Z,52.70
2022-12-16T19:19:31.114Z,51.00
2022-12-16T19:22:24.170Z,60.95
2022-12-16T19:25:15.816Z,57.50
2022-12-16T19:28:11.729Z,72.32
2022-12-16T19:30:57.459Z,70.65
2022-12-16T19:33:43.377Z,55.50
2022-12-16T19:36:29.759Z,63.63
2022-12-16T19:39:15.542Z,46.92
2022-12-16T19:42:01.121Z,63.33
2022-12-16T19:44:46.740Z,49.78
2022-12-16T19:47:32.493Z,53.15
2022-12-16T19:50:18.248Z,52.83
2022-12-16T19:53:04.882Z,53.25
2022-12-16T19:55:53.067Z,57.88
2022-12-16T19:58:40.872Z,54.00
2022-12-16T20:01:29.080Z,67.30
2022-12-16T20:04:15.454Z,48.10
2022-12-16T20:07:00.969Z,56.35
2022-12-16T20:09:47.139Z,50.50
2022-12-16T20:12:32.931Z,56.45
2022-12-16T20:15:19.796Z,52.42
2022-12-16T20:18:05.563Z,55.60
2022-12-16T20:20:51.833Z,53.92
2022-12-16T20:23:39.549Z,54.40
2022-12-16T20:26:26.810Z,52.42
2022-12-16T20:29:12.817Z,57.53
2022-12-16T20:31:59.348Z,58.58
2022-12-16T20:34:45.088Z,54.90
2022-12-16T20:37:30.805Z,57.30
2022-12-16T20:40:16.739Z,58.53
2022-12-16T20:43:02.496Z,54.83
2022-12-16T20:45:48.015Z,60.53
2022-12-16T20:48:35.283Z,54.15
2022-12-16T20:51:26.858Z,56.67
2022-12-16T20:54:13.002Z,50.20
2022-12-16T20:56:59.801Z,66.15
2022-12-16T20:59:45.900Z,55.05
2022-12-16T21:02:33.772Z,54.85
2022-12-16T21:05:20.774Z,62.78
2022-12-16T21:08:08.496Z,53.97
2022-12-16T21:10:56.017Z,46.10
2022-12-16T21:13:41.908Z,59.97
2022-12-16T21:16:27.942Z,55.05
2022-12-16T21:19:13.972Z,48.28
2022-12-16T21:21:59.601Z,45.20
2022-12-16T21:24:45.504Z,51.90
2022-12-16T21:27:30.980Z,52.45
2022-12-16T21:30:16.719Z,51.00
2022-12-16T21:33:02.400Z,56.83
2022-12-16T21:35:48.322Z,52.33
2022-12-16T21:38:34.324Z,58.60
2022-12-16T21:41:19.800Z,59.78
2022-12-16T21:44:05.638Z,50.60
2022-12-16T21:46:51.872Z,58.22
2022-12-16T21:49:37.600Z,56.10
2022-12-16T21:52:23.414Z,54.55
2022-12-16T21:55:08.875Z,54.75
2022-12-16T21:58:14.915Z,57.95
2022-12-16T22:01:00.880Z,48.42
2022-12-16T22:03:53.743Z,54.78
2022-12-16T22:06:41.291Z,54.13
2022-12-16T22:09:29.892Z,57.47
2022-12-16T22:12:15.324Z,54.00
2022-12-16T22:15:00.937Z,55.83
2022-12-16T22:17:46.682Z,55.17
2022-12-16T22:20:32.470Z,56.70
2022-12-16T22:23:20.975Z,63.22
2022-12-16T22:26:18.829Z,47.45
2022-12-16T22:29:15.329Z,46.08
2022-12-16T22:32:01.130Z,50.30
2022-12-16T22:34:46.943Z,58.95
2022-12-16T22:37:32.570Z,53.67
2022-12-16T22:40:18.317Z,52.92
2022-12-16T22:43:07.199Z,51.38
2022-12-16T22:45:52.644Z,48.85
2022-12-16T22:48:38.404Z,57.13
2022-12-16T22:51:29.798Z,50.05
2022-12-16T22:54:15.510Z,47.50
2022-12-16T22:57:05.730Z,57.38
2022-12-16T22:59:51.385Z,52.33
2022-12-16T23:02:37.251Z,48.30
2022-12-16T23:05:27.576Z,46.47
2022-12-16T23:08:14.238Z,48.72
2022-12-16T23:11:00.651Z,52.97
2022-12-16T23:13:47.016Z,46.50
2022-12-16T23:16:32.958Z,53.40
2022-12-16T23:19:18.833Z,53.10
2022-12-16T23:22:06.320Z,54.28
2022-12-16T23:24:51.877Z,62.58
2022-12-16T23:27:37.549Z,61.03
2022-12-16T23:30:23.553Z,59.70
2022-12-16T23:33:15.700Z,55.55
2022-12-16T23:36:01.303Z,63.85
2022-12-16T23:38:46.894Z,75.78
2022-12-16T23:41:32.451Z,75.38
2022-12-16T23:44:18.135Z,73.63
2022-12-16T23:47:03.436Z,79.25
2022-12-16T23:49:49.145Z,74.72
2022-12-16T23:52:34.513Z,89.13
2022-12-16T23:55:20.287Z,70.07
2022-12-16T23:58:06.100Z,93.32
